TVSA Airport Information

Runway Information
Airport Frequencies
Airport Navaids
Airport Weather Information & NOTAM
ADDS - METARS form results

(1104 UTC 20 October 2021)
Data provider http://aviationweather.gov/metar/data/
 
Forecast for: TVSA (ARGYLE , VC)
Text: TAF TVSA 201100Z 2012/2112 09009KT 9999 SCT018
Forecast period: 1200 UTC 20 October 2021 to 1200 UTC 21 October 2021
Forecast type: FROM: standard forecast or significant change
Winds: from the E (90 degrees) at 10 MPH (9 knots; 4.6 m/s)
Visibility: 6 or more miles (10+ km)
Ceiling: at least 12,000 feet AGL
Clouds: scattered clouds at 1800 feet AGL
Weather: no significant weather forecast for this period
Text: PROB40
Forecast period: 1800 UTC 20 October 2021 to 0400 UTC 21 October 2021
Forecast type: TEMPORARY: The following changes expected for less than half the time period
Visibility: missing
Ceiling: 1400 feet AGL
Clouds: broken clouds at 1400 feet AGL
few clouds at 1500 feet AGL
Weather: SHRA  (rain showers)